Time;durP1;ratioP1;P1;durP2;ratioP2;P2;SDS_P1;SDS_P2;PMS_P1;PMS_P2;Temp;Humidity;BMP_temperature;BMP_pressure;BME280_temperature;BME280_humidity;BME280_pressure;Samples;Min_cycle;Max_cycle;Signal;HPM_P1;HPM_P2
2022/05/06 00:02:15;;;;;;;0.10;0.10;;;;;;;14.79;54.35;99676.75;5050750;28;20377;-79
2022/05/06 00:04:43;;;;;;;0.13;0.13;;;;;;;14.77;54.82;99686.22;5049163;28;20024;-78
2022/05/06 00:07:11;;;;;;;0.03;0.03;;;;;;;14.69;54.94;99675.00;5050946;28;20048;-78
2022/05/06 00:09:37;;;;;;;0.10;0.10;;;;;;;14.69;55.00;99671.50;5050758;28;20040;-78
2022/05/06 00:12:02;;;;;;;0.00;0.00;;;;;;;14.67;54.87;99666.44;5050212;28;20018;-78
2022/05/06 00:14:28;;;;;;;0.17;0.17;;;;;;;14.64;54.78;99661.56;5048791;28;20412;-79
2022/05/06 00:16:53;;;;;;;0.13;0.13;;;;;;;14.61;55.38;99658.66;5050383;28;20083;-79
2022/05/06 00:19:19;;;;;;;0.00;0.00;;;;;;;14.67;57.37;99657.53;5049640;28;20083;-77
2022/05/06 00:21:44;;;;;;;0.10;0.10;;;;;;;14.71;58.92;99658.56;5048694;28;20369;-79
2022/05/06 00:24:10;;;;;;;0.00;0.00;;;;;;;14.71;59.00;99655.88;5048859;28;20499;-79
2022/05/06 00:26:35;;;;;;;0.10;0.10;;;;;;;14.69;59.93;99664.22;5048512;28;20036;-79
2022/05/06 00:29:00;;;;;;;0.00;0.00;;;;;;;14.66;60.13;99670.19;5050249;28;20393;-78
2022/05/06 00:31:26;;;;;;;0.20;0.20;;;;;;;14.66;60.54;99670.19;5048760;28;20025;-79
2022/05/06 00:33:51;;;;;;;0.08;0.08;;;;;;;14.63;60.38;99661.88;5049008;28;20044;-79
2022/05/06 00:36:17;;;;;;;0.20;0.20;;;;;;;14.74;60.52;99663.38;5049931;28;20025;-79
2022/05/06 00:38:42;;;;;;;0.03;0.03;;;;;;;14.69;60.27;99664.22;5049913;28;20060;-79
2022/05/06 00:41:08;;;;;;;0.10;0.10;;;;;;;14.67;60.44;99663.72;5044229;28;20522;-78
2022/05/06 00:43:38;;;;;;;0.10;0.10;;;;;;;14.67;60.58;99666.44;5029891;28;20108;-79
2022/05/06 00:46:04;;;;;;;0.00;0.00;;;;;;;14.63;60.40;99659.97;5030153;28;20029;-78
2022/05/06 00:48:32;;;;;;;0.08;0.08;;;;;;;14.55;60.92;99663.31;5031344;28;20032;-77
2022/05/06 00:51:00;;;;;;;0.08;0.08;;;;;;;14.47;61.01;99663.94;5033737;28;20033;-77
2022/05/06 00:53:26;;;;;;;0.10;0.10;;;;;;;14.40;61.25;99666.97;5032364;28;20033;-79
2022/05/06 00:55:52;;;;;;;0.00;0.00;;;;;;;14.41;61.16;99663.19;5033240;28;20123;-79
2022/05/06 00:58:19;;;;;;;0.00;0.00;;;;;;;14.36;61.27;99663.25;5032281;28;20030;-78
2022/05/06 01:00:45;;;;;;;0.10;0.10;;;;;;;14.32;61.13;99665.72;5033542;28;20101;-79
2022/05/06 01:03:11;;;;;;;0.00;0.00;;;;;;;14.27;61.29;99670.31;5048691;28;20104;-77
2022/05/06 01:05:38;;;;;;;0.10;0.10;;;;;;;14.23;61.30;99665.53;5031808;28;20053;-79
2022/05/06 01:08:04;;;;;;;0.10;0.10;;;;;;;14.16;61.53;99675.81;5048918;28;20029;-79
2022/05/06 01:10:30;;;;;;;0.10;0.10;;;;;;;14.19;61.35;99672.56;5033138;28;20029;-77
2022/05/06 01:12:55;;;;;;;0.10;0.10;;;;;;;14.10;61.72;99666.22;5048747;28;20397;-77
2022/05/06 01:15:22;;;;;;;0.00;0.00;;;;;;;14.06;61.93;99671.34;5031880;28;20033;-77
2022/05/06 01:17:50;;;;;;;0.00;0.00;;;;;;;13.99;62.42;99660.13;5033360;28;20057;-77
2022/05/06 01:20:17;;;;;;;0.10;0.10;;;;;;;13.86;60.35;99650.81;5033088;28;20501;-77
2022/05/06 01:22:57;;;;;;;0.00;0.00;;;;;;;13.80;61.02;99654.63;5033238;28;20045;-77
2022/05/06 01:25:23;;;;;;;0.00;0.00;;;;;;;13.73;61.64;99659.53;5032660;28;20029;-77
2022/05/06 01:27:48;;;;;;;0.00;0.00;;;;;;;13.67;61.43;99668.72;5048036;28;20117;-77
2022/05/06 01:30:24;;;;;;;0.40;0.15;;;;;;;13.57;61.30;99664.22;5048231;28;20040;-77
2022/05/06 01:32:51;;;;;;;0.08;0.08;;;;;;;13.40;60.39;99656.56;5033002;28;20026;-77
2022/05/06 01:35:21;;;;;;;0.00;0.00;;;;;;;13.38;59.46;99654.16;5031396;28;20451;-77
2022/05/06 01:37:49;;;;;;;0.00;0.00;;;;;;;13.29;59.40;99648.56;5032931;28;20261;-77
2022/05/06 01:40:20;;;;;;;0.10;0.10;;;;;;;13.23;59.68;99644.28;5030947;28;20049;-77
2022/05/06 01:42:48;;;;;;;0.05;0.05;;;;;;;13.25;60.50;99646.69;5050254;28;20060;-77
2022/05/06 01:45:16;;;;;;;0.10;0.10;;;;;;;13.24;60.89;99653.97;5052993;28;20029;-76
2022/05/06 01:47:42;;;;;;;0.00;0.00;;;;;;;13.26;61.38;99643.72;5052405;28;20029;-77
2022/05/06 01:50:10;;;;;;;0.00;0.00;;;;;;;13.25;61.50;99652.06;5052620;28;20106;-77
2022/05/06 01:52:39;;;;;;;0.00;0.00;;;;;;;13.26;61.61;99646.41;5051934;28;20335;-77
2022/05/06 01:55:07;;;;;;;0.10;0.10;;;;;;;13.20;60.87;99650.22;5051221;28;20401;-77
2022/05/06 01:57:32;;;;;;;0.00;0.00;;;;;;;13.12;60.21;99650.78;5051945;28;20017;-77
2022/05/06 01:59:57;;;;;;;0.00;0.00;;;;;;;13.01;60.09;99646.56;5050216;28;20280;-77
2022/05/06 02:02:23;;;;;;;0.10;0.10;;;;;;;12.85;59.86;99646.63;5050787;28;20431;-77
2022/05/06 02:07:32;;;;;;;0.10;0.10;;;;;;;12.70;59.52;99650.19;5052158;28;20163;-77
2022/05/06 02:09:57;;;;;;;0.00;0.00;;;;;;;12.65;59.27;99652.91;5052471;28;20108;-77
2022/05/06 02:12:23;;;;;;;0.00;0.00;;;;;;;12.59;59.48;99652.13;5051839;28;20134;-77
2022/05/06 02:14:49;;;;;;;0.00;0.00;;;;;;;12.60;59.72;99661.00;5052468;28;20159;-77
2022/05/06 02:17:14;;;;;;;0.00;0.00;;;;;;;12.63;59.60;99661.25;5051955;28;20025;-77
2022/05/06 02:19:40;;;;;;;0.10;0.10;;;;;;;12.57;58.73;99654.28;5051571;28;20028;-77
2022/05/06 02:22:06;;;;;;;0.10;0.10;;;;;;;12.52;59.02;99662.34;5052152;28;20033;-77
2022/05/06 02:24:31;;;;;;;0.00;0.00;;;;;;;12.55;59.31;99658.31;5051769;28;20025;-77
2022/05/06 02:26:57;;;;;;;0.00;0.00;;;;;;;12.52;60.27;99654.28;5050694;28;20579;-77
2022/05/06 02:29:22;;;;;;;0.00;0.00;;;;;;;12.56;60.68;99660.72;5050508;28;20029;-77
2022/05/06 02:34:31;;;;;;;0.00;0.00;;;;;;;12.55;61.89;99661.81;5051419;28;20101;-77
2022/05/06 02:36:57;;;;;;;0.00;0.00;;;;;;;12.54;62.07;99659.41;5051538;28;20025;-77
2022/05/06 02:39:22;;;;;;;0.00;0.00;;;;;;;12.55;61.99;99653.75;5051176;28;20021;-77
2022/05/06 02:41:48;;;;;;;0.00;0.00;;;;;;;12.53;61.70;99653.22;5041418;28;20453;-77
2022/05/06 02:44:13;;;;;;;0.00;0.00;;;;;;;12.57;61.49;99656.97;5030262;28;20501;-77
2022/05/06 02:46:39;;;;;;;0.00;0.00;;;;;;;12.52;61.55;99662.34;5029951;28;20060;-77
2022/05/06 02:49:04;;;;;;;0.00;0.00;;;;;;;12.48;61.66;99658.59;5030272;28;20555;-77
2022/05/06 02:51:30;;;;;;;0.00;0.00;;;;;;;12.43;61.34;99664.00;5031279;28;20033;-77
2022/05/06 02:53:56;;;;;;;0.00;0.00;;;;;;;12.44;61.59;99670.97;5030271;28;20060;-77
2022/05/06 02:56:23;;;;;;;0.00;0.00;;;;;;;12.41;61.47;99672.28;5031580;28;20035;-79
2022/05/06 02:58:49;;;;;;;0.20;0.20;;;;;;;12.41;61.83;99669.59;5030499;28;20068;-78
2022/05/06 03:01:14;;;;;;;0.00;0.00;;;;;;;12.37;61.90;99665.88;5030995;28;20099;-79
2022/05/06 03:03:40;;;;;;;0.10;0.10;;;;;;;12.36;62.51;99679.56;5031142;28;20025;-79
2022/05/06 03:06:05;;;;;;;0.00;0.00;;;;;;;12.24;62.48;99691.41;5031668;28;20033;-79
2022/05/06 03:08:31;;;;;;;0.00;0.00;;;;;;;12.19;62.73;99691.38;5029774;28;20136;-79
2022/05/06 03:10:56;;;;;;;0.00;0.00;;;;;;;12.11;62.79;99684.69;5029776;28;20413;-79
2022/05/06 03:13:22;;;;;;;0.00;0.00;;;;;;;12.07;62.55;99685.50;5029809;28;20032;-79
2022/05/06 03:15:47;;;;;;;0.00;0.00;;;;;;;12.02;62.80;99691.69;5031176;28;20030;-79
2022/05/06 03:18:13;;;;;;;0.00;0.00;;;;;;;11.98;63.38;99685.25;5030817;28;20017;-79
2022/05/06 03:20:40;;;;;;;0.10;0.10;;;;;;;12.03;63.03;99695.97;5030790;28;20025;-79
2022/05/06 03:23:06;;;;;;;0.30;0.30;;;;;;;12.04;63.42;99704.81;5029858;28;20508;-79
2022/05/06 03:25:31;;;;;;;0.00;0.00;;;;;;;12.19;63.20;99710.16;5030850;28;20059;-78
2022/05/06 03:27:59;;;;;;;0.10;0.10;;;;;;;12.33;63.07;99700.47;5031023;28;20534;-79
2022/05/06 03:30:26;;;;;;;0.00;0.00;;;;;;;12.59;62.37;99695.06;5031130;28;20033;-78
2022/05/06 03:32:55;;;;;;;0.00;0.00;;;;;;;12.89;61.82;99701.41;5029635;28;20473;-78
2022/05/06 03:35:21;;;;;;;0.00;0.00;;;;;;;13.34;61.11;99706.00;5029796;28;20034;-79
2022/05/06 03:37:46;;;;;;;0.00;0.00;;;;;;;13.71;59.86;99697.44;5029690;28;20034;-79
2022/05/06 03:40:13;;;;;;;0.00;0.00;;;;;;;14.19;58.61;99712.09;5029201;28;20178;-79
2022/05/06 03:42:38;;;;;;;0.08;0.08;;;;;;;14.73;57.33;99715.59;5045258;28;20393;-78
2022/05/06 03:45:04;;;;;;;0.08;0.08;;;;;;;15.18;56.07;99726.94;5049758;28;20033;-77
2022/05/06 03:47:30;;;;;;;0.00;0.00;;;;;;;15.67;55.09;99716.78;5048468;28;20017;-79
2022/05/06 03:52:39;;;;;;;0.10;0.10;;;;;;;16.73;51.43;99721.72;5049553;28;20067;-79
2022/05/06 03:55:05;;;;;;;0.10;0.10;;;;;;;17.22;50.56;99715.88;5048206;28;20061;-78
2022/05/06 03:57:30;;;;;;;0.10;0.10;;;;;;;17.65;49.24;99712.75;5049876;28;20037;-78
2022/05/06 03:59:56;;;;;;;0.05;0.05;;;;;;;18.15;48.58;99719.97;5049398;28;20025;-78
2022/05/06 04:02:21;;;;;;;0.10;0.10;;;;;;;18.65;47.07;99723.50;5050086;28;20033;-79
2022/05/06 04:04:47;;;;;;;0.10;0.10;;;;;;;19.15;45.73;99719.69;5049891;28;20037;-79
2022/05/06 04:07:14;;;;;;;0.03;0.03;;;;;;;19.64;44.62;99723.06;5049661;28;20102;-79
2022/05/06 04:09:39;;;;;;;0.03;0.03;;;;;;;20.13;43.05;99722.84;5048238;28;20120;-79
2022/05/06 04:12:05;;;;;;;0.10;0.10;;;;;;;20.63;41.92;99723.34;5049411;28;20166;-79
2022/05/06 04:14:30;;;;;;;0.10;0.10;;;;;;;21.07;40.88;99726.63;5049432;28;20476;-78
2022/05/06 04:16:56;;;;;;;0.00;0.00;;;;;;;21.50;39.67;99719.28;5049699;28;20408;-79
2022/05/06 04:19:21;;;;;;;0.10;0.10;;;;;;;22.00;38.53;99728.44;5049775;28;20052;-78
2022/05/06 04:24:31;;;;;;;0.03;0.03;;;;;;;22.84;37.21;99735.50;5052662;28;20044;-78
2022/05/06 04:26:56;;;;;;;0.00;0.00;;;;;;;23.29;37.06;99735.69;5052806;28;20021;-78
2022/05/06 04:29:21;;;;;;;0.00;0.00;;;;;;;23.72;36.13;99738.88;5052641;28;20111;-78
2022/05/06 04:31:47;;;;;;;0.00;0.00;;;;;;;24.21;35.46;99724.19;5052037;28;20025;-78
2022/05/06 04:34:12;;;;;;;0.00;0.00;;;;;;;24.65;34.04;99736.97;5052385;28;20029;-78
2022/05/06 04:36:39;;;;;;;0.00;0.00;;;;;;;25.01;33.44;99732.34;5051155;28;20040;-78
2022/05/06 04:39:05;;;;;;;0.00;0.00;;;;;;;25.40;32.88;99741.44;5052264;28;20103;-78
2022/05/06 04:41:31;;;;;;;0.05;0.05;;;;;;;25.73;32.04;99737.41;5003822;28;1189356;-78
2022/05/06 04:43:57;;;;;;;0.00;0.00;;;;;;;26.04;30.65;99735.59;5033775;28;20095;-75
2022/05/06 04:46:22;;;;;;;0.00;0.00;;;;;;;26.19;30.24;99731.19;5033624;28;20033;-78
2022/05/06 04:48:48;;;;;;;0.00;0.00;;;;;;;26.38;29.93;99737.81;5034036;28;20022;-78
2022/05/06 04:51:13;;;;;;;0.00;0.00;;;;;;;26.51;30.06;99733.72;5033893;28;20099;-78
2022/05/06 04:53:39;;;;;;;0.00;0.00;;;;;;;26.51;29.80;99730.97;5033464;28;20026;-78
2022/05/06 04:56:05;;;;;;;0.00;0.00;;;;;;;26.51;29.71;99728.22;5033421;28;20030;-77
2022/05/06 04:58:30;;;;;;;0.00;0.00;;;;;;;26.55;29.38;99730.22;5033437;28;20025;-77
2022/05/06 05:00:56;;;;;;;0.00;0.00;;;;;;;26.43;29.46;99725.75;5033686;28;20029;-77
2022/05/06 05:03:22;;;;;;;0.10;0.10;;;;;;;26.31;29.40;99737.69;5033692;28;20120;-78
2022/05/06 05:05:48;;;;;;;0.00;0.00;;;;;;;26.20;29.82;99749.22;5033067;28;20065;-77
2022/05/06 05:08:14;;;;;;;0.00;0.00;;;;;;;26.05;30.44;99747.38;5033662;28;20024;-78
2022/05/06 05:10:39;;;;;;;1.23;0.43;;;;;;;25.83;30.25;99751.66;5033103;28;20026;-77
2022/05/06 05:13:05;;;;;;;0.00;0.00;;;;;;;25.70;30.58;99745.53;5033535;28;20029;-77
2022/05/06 05:15:31;;;;;;;0.00;0.00;;;;;;;25.45;30.14;99751.31;5033090;28;20404;-78
2022/05/06 05:17:56;;;;;;;0.00;0.00;;;;;;;25.22;30.36;99743.75;5033336;28;20100;-77
2022/05/06 05:20:22;;;;;;;0.00;0.00;;;;;;;24.99;30.59;99740.91;5033043;28;20463;-78
2022/05/06 05:22:47;;;;;;;0.00;0.00;;;;;;;24.88;30.80;99745.34;5032969;28;20071;-78
2022/05/06 05:25:13;;;;;;;0.00;0.00;;;;;;;24.70;31.13;99742.97;5033254;28;20128;-78
2022/05/06 05:27:38;;;;;;;0.00;0.00;;;;;;;24.53;30.66;99740.59;5031607;28;20026;-78
2022/05/06 05:30:08;;;;;;;0.00;0.00;;;;;;;24.30;30.52;99747.47;5031773;28;20045;-78
2022/05/06 05:32:35;;;;;;;0.45;0.45;;;;;;;24.12;31.33;99748.91;5031561;28;20026;-77
2022/05/06 05:35:00;;;;;;;0.00;0.00;;;;;;;23.99;32.60;99745.47;5032809;28;20032;-77
2022/05/06 05:37:26;;;;;;;0.20;0.20;;;;;;;23.78;33.26;99742.94;5032847;28;20026;-77
2022/05/06 05:39:52;;;;;;;0.00;0.00;;;;;;;23.63;33.58;99752.66;5032606;28;20049;-77
2022/05/06 05:42:27;;;;;;;0.03;0.03;;;;;;;23.56;33.92;99752.44;5046784;28;20041;-77
2022/05/06 05:50:23;;;;;;;0.20;0.20;;;;;;;23.40;34.30;99752.38;5052162;28;20507;-76
2022/05/06 05:52:48;;;;;;;0.00;0.00;;;;;;;23.40;34.33;99749.66;5052311;28;20055;-76
2022/05/06 05:55:14;;;;;;;0.10;0.10;;;;;;;23.40;34.05;99744.19;5052320;28;20025;-76
2022/05/06 05:57:40;;;;;;;0.00;0.00;;;;;;;23.33;34.59;99747.53;5051933;28;20025;-76
2022/05/06 06:00:06;;;;;;;0.00;0.00;;;;;;;23.34;34.28;99746.38;5052187;28;20020;-78
2022/05/06 06:02:32;;;;;;;0.10;0.10;;;;;;;23.37;34.42;99748.41;5052013;28;20039;-78
2022/05/06 06:04:57;;;;;;;0.10;0.10;;;;;;;23.38;34.63;99744.53;5052262;28;20021;-78
2022/05/06 06:07:23;;;;;;;0.00;0.00;;;;;;;23.36;35.00;99752.28;5052309;28;20464;-76
2022/05/06 06:09:49;;;;;;;0.03;0.03;;;;;;;23.22;35.07;99740.94;5051940;28;20021;-76
2022/05/06 06:12:15;;;;;;;0.00;0.00;;;;;;;23.15;35.49;99755.91;5051728;28;20474;-76
2022/05/06 06:14:40;;;;;;;0.00;0.00;;;;;;;23.13;35.85;99754.69;5050378;28;20035;-76
2022/05/06 06:17:06;;;;;;;0.05;0.05;;;;;;;23.12;36.13;99753.91;5052176;28;20031;-76
2022/05/06 06:19:31;;;;;;;0.00;0.00;;;;;;;23.22;35.47;99758.09;5051838;28;20112;-78
2022/05/06 06:21:56;;;;;;;0.10;0.10;;;;;;;23.28;35.06;99756.72;5051803;28;20109;-78
2022/05/06 06:24:22;;;;;;;0.00;0.00;;;;;;;23.37;35.47;99756.59;5051969;28;20032;-78
2022/05/06 06:26:47;;;;;;;0.00;0.00;;;;;;;23.46;34.80;99749.06;5051523;28;20439;-78
2022/05/06 06:29:13;;;;;;;0.10;0.10;;;;;;;23.52;34.77;99757.78;5051902;28;20021;-77
2022/05/06 06:31:38;;;;;;;0.05;0.05;;;;;;;23.49;34.48;99744.84;5051869;28;20079;-78
2022/05/06 06:34:04;;;;;;;0.00;0.00;;;;;;;23.49;34.20;99758.50;5051841;28;20021;-77
2022/05/06 06:36:30;;;;;;;0.00;0.00;;;;;;;23.42;34.28;99752.84;5051889;28;20032;-78
2022/05/06 06:38:55;;;;;;;0.08;0.08;;;;;;;23.17;34.83;99742.75;5051631;28;20390;-77
2022/05/06 06:41:21;;;;;;;1.65;0.95;;;;;;;23.01;35.35;99756.28;5045364;28;20130;-77
2022/05/06 06:43:50;;;;;;;0.05;0.05;;;;;;;22.96;35.98;99759.25;5031408;28;20556;-77
2022/05/06 06:46:16;;;;;;;0.05;0.05;;;;;;;22.95;35.98;99759.56;5031617;28;20030;-76
2022/05/06 06:48:42;;;;;;;0.00;0.00;;;;;;;23.00;36.25;99757.41;5030014;28;20037;-76
2022/05/06 06:51:08;;;;;;;0.10;0.10;;;;;;;23.02;36.37;99767.97;5031510;28;20033;-77
2022/05/06 06:53:33;;;;;;;0.40;0.20;;;;;;;23.03;35.70;99756.75;5031232;28;20044;-76
2022/05/06 06:55:59;;;;;;;0.00;0.00;;;;;;;23.08;36.04;99752.97;5031753;28;20026;-76
2022/05/06 06:58:27;;;;;;;0.30;0.30;;;;;;;23.01;35.58;99745.38;5031580;28;20036;-76
2022/05/06 07:00:53;;;;;;;;;;;;;;;23.07;35.73;99759.59;5031662;28;20026;-76
2022/05/06 07:03:19;;;;;;;0.10;0.10;;;;;;;23.12;35.90;99764.00;5031553;28;19913;-76
2022/05/06 07:13:57;;;;;;;0.10;0.10;;;;;;;22.71;36.64;99753.78;5031268;28;20120;-76
2022/05/06 07:16:23;;;;;;;0.32;0.28;;;;;;;22.75;37.29;99753.13;5031132;28;20487;-76
2022/05/06 07:18:51;;;;;;;0.00;0.00;;;;;;;22.80;37.49;99756.41;5030768;28;20033;-76
2022/05/06 07:21:16;;;;;;;;;;;;;;;22.72;37.23;99749.16;5031547;28;20469;-76
2022/05/06 07:23:42;;;;;;;0.10;0.10;;;;;;;22.27;38.12;99745.31;5030956;28;19920;-77
2022/05/06 07:26:07;;;;;;;0.00;0.00;;;;;;;22.23;38.84;99738.97;5031272;28;20029;-76
2022/05/06 07:28:33;;;;;;;0.10;0.10;;;;;;;22.08;39.55;99743.09;5030272;28;20032;-78
2022/05/06 07:30:58;;;;;;;0.00;0.00;;;;;;;22.17;39.46;99740.31;5031361;28;20116;-77
2022/05/06 07:33:24;;;;;;;0.22;0.22;;;;;;;22.21;39.92;99741.22;5030587;28;20024;-76
2022/05/06 07:35:50;;;;;;;0.30;0.20;;;;;;;22.16;40.29;99742.22;5030378;28;20033;-76
2022/05/06 07:38:15;;;;;;;0.10;0.10;;;;;;;22.10;40.35;99740.06;5030576;28;20500;-77
2022/05/06 07:40:41;;;;;;;0.10;0.10;;;;;;;22.22;40.62;99726.47;5030724;28;20049;-78
2022/05/06 07:43:06;;;;;;;0.10;0.10;;;;;;;22.03;41.49;99735.16;5050485;28;20025;-78
2022/05/06 07:45:32;;;;;;;0.20;0.20;;;;;;;21.91;42.18;99739.44;5049732;28;20033;-76
2022/05/06 07:47:58;;;;;;;0.10;0.10;;;;;;;21.90;42.00;99737.84;5050434;28;20032;-78
2022/05/06 07:50:26;;;;;;;0.10;0.10;;;;;;;21.98;42.20;99740.81;5050451;28;20120;-76
2022/05/06 07:52:52;;;;;;;0.10;0.10;;;;;;;21.90;42.97;99740.56;5050210;28;20037;-78
2022/05/06 07:55:19;;;;;;;0.20;0.20;;;;;;;21.90;43.27;99746.00;5049072;28;20039;-77
2022/05/06 07:57:46;;;;;;;0.00;0.00;;;;;;;21.71;44.16;99742.97;5052106;28;20100;-78
2022/05/06 08:00:12;;;;;;;8.50;0.73;;;;;;;21.42;44.81;99741.91;5053945;28;20447;-77
2022/05/06 08:05:26;;;;;;;0.20;0.20;;;;;;;21.12;45.19;99750.13;5054617;28;20044;-78
2022/05/06 08:07:51;;;;;;;0.00;0.00;;;;;;;20.93;45.88;99748.63;5054520;28;20041;-78
2022/05/06 08:10:16;;;;;;;0.17;0.17;;;;;;;20.89;45.46;99750.41;5054257;28;20029;-78
2022/05/06 08:12:42;;;;;;;0.52;0.52;;;;;;;20.71;46.13;99755.09;5052457;28;20423;-79
2022/05/06 08:15:08;;;;;;;0.10;0.10;;;;;;;20.59;45.88;99747.66;5053972;28;20060;-78
2022/05/06 08:17:33;;;;;;;0.20;0.20;;;;;;;20.56;46.11;99753.72;5053506;28;20378;-78
2022/05/06 08:19:59;;;;;;;0.30;0.30;;;;;;;20.64;45.71;99752.88;5054252;28;20021;-78
2022/05/06 08:22:25;;;;;;;1.05;1.05;;;;;;;20.58;44.98;99754.19;5054171;28;20523;-78
2022/05/06 08:24:51;;;;;;;0.30;0.30;;;;;;;20.60;45.46;99751.97;5053915;28;20495;-77
2022/05/06 08:27:17;;;;;;;0.10;0.10;;;;;;;20.55;45.43;99756.75;5053733;28;20033;-77
2022/05/06 08:29:42;;;;;;;0.10;0.10;;;;;;;20.62;45.69;99757.06;5053833;28;20028;-78
2022/05/06 08:32:08;;;;;;;0.45;0.45;;;;;;;20.64;44.33;99760.22;5069248;28;20537;-78
2022/05/06 08:34:35;;;;;;;0.20;0.20;;;;;;;20.51;44.06;99758.53;5053910;28;20025;-77
2022/05/06 08:37:01;;;;;;;0.10;0.10;;;;;;;20.53;45.13;99757.09;5054100;28;20025;-77
2022/05/06 08:39:26;;;;;;;0.13;0.13;;;;;;;20.44;45.05;99759.03;5053511;28;20029;-78
2022/05/06 08:41:54;;;;;;;0.28;0.28;;;;;;;20.52;45.67;99763.66;5043198;28;20514;-78
2022/05/06 08:52:45;;;;;;;0.98;0.82;;;;;;;20.68;44.10;99763.91;5033265;28;20420;-79
2022/05/06 08:55:10;;;;;;;0.20;0.20;;;;;;;20.69;44.97;99765.50;5033272;28;20467;-78
2022/05/06 08:57:36;;;;;;;0.25;0.25;;;;;;;20.83;44.92;99765.31;5033392;28;20095;-76
2022/05/06 09:00:04;;;;;;;0.13;0.13;;;;;;;20.91;43.85;99763.66;5033695;28;20041;-77
2022/05/06 09:02:29;;;;;;;0.05;0.05;;;;;;;20.85;42.38;99754.91;5031956;28;20029;-78
2022/05/06 09:04:55;;;;;;;0.00;0.00;;;;;;;20.84;43.85;99755.25;5033430;28;20034;-77
2022/05/06 09:07:22;;;;;;;0.10;0.10;;;;;;;20.87;43.24;99763.53;5032182;28;20025;-76
2022/05/06 09:10:12;;;;;;;0.20;0.20;;;;;;;20.85;43.93;99757.63;5032534;28;20057;-79
2022/05/06 09:12:41;;;;;;;0.15;0.15;;;;;;;20.74;42.86;99738.16;5033588;28;20052;-78
2022/05/06 09:17:50;;;;;;;0.43;0.25;;;;;;;20.86;43.08;99744.81;5032917;28;20072;-78
2022/05/06 09:20:21;;;;;;;0.10;0.10;;;;;;;20.93;44.15;99747.81;5031616;28;20052;-79
2022/05/06 09:22:50;;;;;;;0.10;0.10;;;;;;;20.89;42.36;99738.75;5033291;28;20029;-78
2022/05/06 09:25:42;;;;;;;0.28;0.15;;;;;;;20.90;40.95;99738.41;5033175;28;20116;-79
2022/05/06 09:28:20;;;;;;;0.10;0.10;;;;;;;20.97;40.27;99737.91;5030284;28;20095;-79
2022/05/06 09:31:02;;;;;;;0.10;0.10;;;;;;;21.05;40.31;99739.75;5033187;28;20080;-79
2022/05/06 09:33:29;;;;;;;0.20;0.20;;;;;;;21.11;40.03;99738.44;5033026;28;20119;-78
2022/05/06 09:35:56;;;;;;;0.10;0.10;;;;;;;21.07;39.83;99721.19;5032784;28;20116;-76
2022/05/06 09:38:22;;;;;;;0.10;0.10;;;;;;;21.17;40.05;99722.72;5031748;28;20140;-79
2022/05/06 09:40:47;;;;;;;0.00;0.00;;;;;;;21.28;39.36;99718.47;5034166;28;20136;-78
2022/05/06 09:43:17;;;;;;;0.25;0.25;;;;;;;21.42;39.42;99720.13;5053314;28;20027;-78
2022/05/06 09:45:44;;;;;;;0.32;0.32;;;;;;;21.53;38.85;99720.53;5052499;28;20021;-78
2022/05/06 09:48:14;;;;;;;0.00;0.00;;;;;;;21.51;38.19;99722.81;5052574;28;20032;-78
2022/05/06 09:50:48;;;;;;;0.00;0.00;;;;;;;21.45;36.73;99727.66;5052483;28;20029;-78
2022/05/06 09:53:15;;;;;;;0.20;0.20;;;;;;;21.39;34.44;99715.38;5052704;28;20029;-78
2022/05/06 09:55:44;;;;;;;0.10;0.10;;;;;;;21.36;34.16;99718.75;5051094;28;20033;-79
2022/05/06 09:58:11;;;;;;;0.40;0.40;;;;;;;21.28;32.68;99704.88;5052415;28;20029;-79
2022/05/06 10:00:38;;;;;;;0.10;0.10;;;;;;;21.29;32.90;99705.69;5051720;28;20190;-78
2022/05/06 10:03:05;;;;;;;0.23;0.23;;;;;;;21.39;35.12;99693.59;5052577;28;20033;-78
2022/05/06 10:05:33;;;;;;;0.08;0.08;;;;;;;21.42;34.57;99699.19;5052203;28;20328;-78
2022/05/06 10:08:03;;;;;;;0.10;0.10;;;;;;;21.44;34.21;99699.63;5052069;28;20029;-78
2022/05/06 10:10:31;;;;;;;0.20;0.20;;;;;;;21.46;32.99;99702.03;5052259;28;20029;-76
2022/05/06 10:13:00;;;;;;;0.25;0.25;;;;;;;21.41;30.74;99703.03;5052116;28;20108;-76
2022/05/06 10:15:28;;;;;;;0.10;0.10;;;;;;;21.44;30.96;99693.41;5050677;28;20495;-79
2022/05/06 10:17:59;;;;;;;0.10;0.10;;;;;;;21.57;33.84;99691.56;5051680;28;20040;-79
2022/05/06 10:20:33;;;;;;;0.35;0.35;;;;;;;21.77;31.69;99702.75;5051073;28;20527;-79
2022/05/06 10:23:04;;;;;;;0.10;0.10;;;;;;;21.80;29.60;99694.72;5051727;28;20032;-76
2022/05/06 10:25:41;;;;;;;0.10;0.10;;;;;;;21.78;28.47;99688.78;5051427;28;20029;-77
2022/05/06 10:34:14;;;;;;;0.10;0.10;;;;;;;21.73;29.73;99678.91;5052132;28;20036;-77
2022/05/06 10:36:51;;;;;;;0.15;0.15;;;;;;;21.79;29.12;99684.13;5051598;28;20040;-77
2022/05/06 10:39:20;;;;;;;0.40;0.40;;;;;;;21.78;27.05;99690.72;5050381;28;20052;-79
2022/05/06 10:42:03;;;;;;;0.00;0.00;;;;;;;21.83;27.60;99680.41;5041920;28;20049;-79
2022/05/06 10:44:44;;;;;;;0.10;0.10;;;;;;;21.77;27.72;99684.47;5031696;28;20100;-78
2022/05/06 10:47:12;;;;;;;0.10;0.10;;;;;;;21.79;29.00;99678.69;5032043;28;20477;-78
2022/05/06 10:49:38;;;;;;;;;;;;;;;21.85;29.12;99675.44;5031948;28;20037;-78
2022/05/06 10:52:28;;;;;;;0.08;0.08;;;;;;;21.91;29.09;99670.56;5031941;28;19919;-78
2022/05/06 10:55:03;;;;;;;0.20;0.20;;;;;;;21.89;29.03;99670.09;5031461;28;20029;-78
2022/05/06 10:57:44;;;;;;;0.10;0.10;;;;;;;21.91;29.05;99668.63;5031622;28;20029;-78
2022/05/06 11:00:10;;;;;;;0.10;0.10;;;;;;;21.95;29.94;99657.88;5031568;28;20064;-78
2022/05/06 11:02:38;;;;;;;0.10;0.10;;;;;;;21.97;29.59;99644.72;5030182;28;20057;-79
2022/05/06 11:05:07;;;;;;;0.00;0.00;;;;;;;22.11;29.52;99658.00;5031443;28;20026;-78
2022/05/06 11:07:44;;;;;;;0.00;0.00;;;;;;;22.01;29.82;99653.78;5031372;28;20473;-79
2022/05/06 11:10:21;;;;;;;0.63;0.63;;;;;;;21.94;30.40;99645.38;5032008;28;20037;-79
2022/05/06 11:12:51;;;;;;;0.10;0.10;;;;;;;22.11;30.48;99644.38;5031177;28;20052;-79
2022/05/06 11:15:22;;;;;;;0.10;0.10;;;;;;;22.17;29.80;99653.91;5031235;28;20113;-79
2022/05/06 11:17:49;;;;;;;0.43;0.43;;;;;;;22.21;29.67;99646.66;5029724;28;20119;-78
2022/05/06 11:20:23;;;;;;;0.00;0.00;;;;;;;22.25;28.70;99646.75;5031179;28;20500;-79
2022/05/06 11:22:59;;;;;;;0.55;0.55;;;;;;;22.28;29.17;99646.09;5029477;28;20048;-78
2022/05/06 11:25:27;;;;;;;0.10;0.10;;;;;;;22.23;29.26;99630.00;5031066;28;20141;-78
2022/05/06 11:27:54;;;;;;;0.00;0.00;;;;;;;22.29;29.04;99634.06;5029526;28;20497;-78
2022/05/06 11:30:22;;;;;;;0.10;0.10;;;;;;;22.36;28.49;99637.03;5029694;28;20033;-78
2022/05/06 11:32:54;;;;;;;0.32;0.32;;;;;;;22.33;28.61;99640.41;5030841;28;20033;-78
2022/05/06 11:35:26;;;;;;;0.10;0.10;;;;;;;22.26;28.59;99626.56;5030836;28;20481;-78
2022/05/06 11:37:51;;;;;;;0.40;0.40;;;;;;;22.35;28.54;99619.09;5030461;28;20029;-78
2022/05/06 11:42:49;;;;;;;0.10;0.10;;;;;;;22.41;28.65;99613.44;5048929;28;20430;-79
2022/05/06 11:48:23;;;;;;;0.00;0.00;;;;;;;22.42;28.14;99612.28;4988782;28;20081;-78
2022/05/06 11:50:57;;;;;;;1.55;0.52;;;;;;;22.47;28.75;99606.59;4988203;28;20041;-77
2022/05/06 11:53:27;;;;;;;0.20;0.20;;;;;;;22.53;28.83;99599.78;5021791;28;20037;-78
2022/05/06 11:55:54;;;;;;;0.08;0.08;;;;;;;22.70;28.80;99610.44;5050062;28;20025;-78
2022/05/06 11:58:20;;;;;;;0.60;0.60;;;;;;;22.75;30.42;99598.50;5050594;28;20025;-78
2022/05/06 12:00:46;;;;;;;0.20;0.20;;;;;;;22.73;29.11;99606.25;5049941;28;20021;-78
2022/05/06 12:03:13;;;;;;;0.10;0.10;;;;;;;22.66;29.73;99595.13;5050350;28;20090;-79
2022/05/06 12:05:40;;;;;;;0.10;0.10;;;;;;;22.62;29.08;99594.19;5050015;28;20462;-78
2022/05/06 12:08:07;;;;;;;0.93;0.90;;;;;;;22.52;29.06;99593.56;5050592;28;20090;-78
2022/05/06 12:10:37;;;;;;;0.20;0.20;;;;;;;22.41;30.01;99578.81;5050237;28;20179;-78
2022/05/06 12:13:07;;;;;;;0.57;0.50;;;;;;;22.39;30.41;99576.41;5050077;28;20108;-79
2022/05/06 12:15:43;;;;;;;0.10;0.10;;;;;;;22.42;29.56;99580.38;5050309;28;20476;-78
2022/05/06 12:18:18;;;;;;;0.70;0.35;;;;;;;22.29;29.52;99576.84;5050508;28;20091;-78
2022/05/06 12:20:46;;;;;;;0.73;0.55;;;;;;;22.29;29.07;99568.69;5050132;28;20029;-78
2022/05/06 12:23:12;;;;;;;;;;;;;;;22.35;29.32;99574.69;5050831;28;20025;-78
2022/05/06 12:25:39;;;;;;;0.28;0.28;;;;;;;22.30;29.43;99564.81;5050252;28;19908;-81